createdAt,value
2023-04-05T00:02:29.100Z,100833.66
2023-04-05T00:07:35.486Z,100805.41
2023-04-05T00:12:32.707Z,100787.47
2023-04-05T00:17:35.227Z,100835.47
2023-04-05T00:22:35.583Z,100814.84
2023-04-05T00:27:35.517Z,100792.53
2023-04-05T00:32:35.304Z,100783.72
2023-04-05T00:37:40.617Z,100799.72
2023-04-05T00:42:37.554Z,100791.16
2023-04-05T00:47:34.685Z,100802.06
2023-04-05T00:52:33.330Z,100772.06
2023-04-05T00:57:31.623Z,100741.34
2023-04-05T01:02:33.340Z,100814.66
2023-04-05T01:07:43.400Z,100777.00
2023-04-05T01:12:42.097Z,100806.81
2023-04-05T01:17:39.227Z,100797.38
2023-04-05T01:23:17.084Z,100791.09
2023-04-05T01:28:46.847Z,100781.63
2023-04-05T01:33:55.382Z,100745.47
2023-04-05T01:38:54.085Z,100785.56
2023-04-05T01:43:51.112Z,100771.03
2023-04-05T01:48:48.781Z,100762.50
2023-04-05T01:53:46.028Z,100754.09
2023-04-05T01:58:44.692Z,100744.59
2023-04-05T02:03:42.133Z,100754.00
2023-04-05T02:08:39.913Z,100767.53
2023-04-05T02:13:37.647Z,100765.13
2023-04-05T02:18:34.703Z,100766.03
2023-04-05T02:23:33.108Z,100790.94
2023-04-05T02:28:31.087Z,100778.09
2023-04-05T02:33:29.161Z,100749.13
2023-04-05T02:38:26.117Z,100755.03
2023-04-05T02:43:23.964Z,100739.69
2023-04-05T02:48:21.627Z,100757.38
2023-04-05T02:53:19.197Z,100763.53
2023-04-05T02:58:23.898Z,100764.75
2023-04-05T03:03:22.572Z,100704.66
2023-04-05T03:08:23.191Z,100726.94
2023-04-05T03:13:30.109Z,100776.72
2023-04-05T03:18:29.465Z,100733.34
2023-04-05T03:23:33.445Z,100795.78
2023-04-05T03:28:32.670Z,100802.16
2023-04-05T03:33:34.206Z,100804.66
2023-04-05T03:38:32.299Z,100796.91
2023-04-05T03:43:43.499Z,100791.16
2023-04-05T03:48:46.783Z,100804.09
2023-04-05T03:53:44.143Z,100786.41
2023-04-05T03:58:41.687Z,100730.13
2023-04-05T04:03:42.571Z,100813.75
2023-04-05T04:08:40.455Z,100763.38
2023-04-05T04:13:38.603Z,100816.44
2023-04-05T04:18:54.646Z,100827.66
2023-04-05T04:24:18.065Z,100800.22
2023-04-05T04:29:40.101Z,100791.63
2023-04-05T04:35:00.011Z,100806.75
2023-04-05T04:40:25.347Z,100820.22
2023-04-05T04:45:37.037Z,100828.88
2023-04-05T04:50:51.918Z,100775.91
2023-04-05T04:55:50.841Z,100809.16
2023-04-05T05:00:47.954Z,100768.06
2023-04-05T05:05:50.263Z,100812.25
2023-04-05T05:10:53.692Z,100805.25
2023-04-05T05:15:52.402Z,100803.50
2023-04-05T05:20:52.748Z,100725.75
2023-04-05T05:25:49.951Z,100778.53
2023-04-05T05:30:50.414Z,100799.50
2023-04-05T05:35:48.568Z,100742.28
2023-04-05T05:40:45.630Z,100812.94
2023-04-05T05:45:42.475Z,100788.78
2023-04-05T05:50:41.466Z,100821.88
2023-04-05T05:55:38.293Z,100826.84
2023-04-05T06:00:35.767Z,100792.53
2023-04-05T06:05:32.524Z,100813.75
2023-04-05T06:10:30.602Z,100816.72
2023-04-05T06:15:27.410Z,100831.09
2023-04-05T06:20:24.186Z,100855.66
2023-04-05T06:25:20.984Z,100831.34
2023-04-05T06:30:18.701Z,100860.09
2023-04-05T06:35:17.366Z,100852.63
2023-04-05T06:40:14.322Z,100810.75
2023-04-05T06:45:11.943Z,100838.94
2023-04-05T06:50:09.673Z,100823.00
2023-04-05T06:55:07.584Z,100816.44
2023-04-05T07:00:11.202Z,100843.78
2023-04-05T07:05:08.233Z,100857.28
2023-04-05T07:10:06.949Z,100812.78
2023-04-05T07:15:04.748Z,100813.13
2023-04-05T07:20:06.235Z,100834.63
2023-04-05T07:25:03.216Z,100832.34
2023-04-05T07:30:00.869Z,100871.97
2023-04-05T07:34:57.647Z,100845.22
2023-04-05T07:39:54.349Z,100877.09
2023-04-05T07:44:51.210Z,100847.63
2023-04-05T07:49:51.381Z,100891.88
2023-04-05T07:54:49.361Z,100885.28
2023-04-05T07:59:47.361Z,100874.38
2023-04-05T08:04:44.131Z,100875.59
2023-04-05T08:09:41.903Z,100881.47
2023-04-05T08:14:38.649Z,100890.91
2023-04-05T08:19:35.385Z,100898.13
2023-04-05T08:24:32.081Z,100892.69
2023-04-05T08:29:30.075Z,100873.81
2023-04-05T08:34:27.025Z,100898.13
2023-04-05T08:39:23.749Z,100907.28
2023-04-05T08:44:25.186Z,100895.16
2023-04-05T08:49:23.601Z,100910.69
2023-04-05T08:54:22.343Z,100926.00
2023-04-05T08:59:19.880Z,100921.66
2023-04-05T09:04:21.043Z,100888.97
2023-04-05T09:09:20.997Z,100883.94
2023-04-05T09:14:20.128Z,100898.22
2023-04-05T09:19:16.890Z,100897.72
2023-04-05T09:24:13.578Z,100922.03
2023-04-05T09:29:29.320Z,100908.31
2023-04-05T09:34:25.789Z,100904.00
2023-04-05T09:39:28.454Z,100898.69
2023-04-05T09:44:26.463Z,100910.56
2023-04-05T09:49:32.318Z,100839.41
2023-04-05T09:54:29.778Z,100895.91
2023-04-05T09:59:27.520Z,100879.28
2023-04-05T10:04:24.764Z,100876.25
2023-04-05T10:09:22.097Z,100880.31
2023-04-05T10:14:19.940Z,100893.66
2023-04-05T10:19:26.538Z,100873.53
2023-04-05T10:24:34.168Z,100878.72
2023-04-05T10:29:38.212Z,100862.16
2023-04-05T10:34:42.022Z,100879.34
2023-04-05T10:39:45.342Z,100884.66
2023-04-05T10:44:45.790Z,100898.81
2023-04-05T10:49:46.975Z,100913.28
2023-04-05T10:54:44.976Z,100914.00
2023-04-05T10:59:44.058Z,100909.16
2023-04-05T11:04:42.118Z,100905.31
2023-04-05T11:09:50.233Z,100894.56
2023-04-05T11:14:47.086Z,100910.28
2023-04-05T11:19:51.938Z,100894.63
2023-04-05T11:24:55.799Z,100888.41
2023-04-05T11:29:53.881Z,100890.25
2023-04-05T11:35:01.032Z,100904.06
2023-04-05T11:40:30.021Z,100903.19
2023-04-05T11:45:27.162Z,100873.97
2023-04-05T11:50:24.829Z,100897.63
2023-04-05T11:55:26.679Z,100908.91
2023-04-05T12:00:24.392Z,100867.69
2023-04-05T12:05:21.382Z,100897.81
2023-04-05T12:10:18.532Z,100871.41
2023-04-05T12:15:20.812Z,100890.91
2023-04-05T12:20:20.525Z,100893.88
2023-04-05T12:25:18.816Z,100889.53
2023-04-05T12:30:16.911Z,100910.00
2023-04-05T12:35:16.960Z,100918.34
2023-04-05T12:40:20.206Z,100899.47
2023-04-05T12:45:17.998Z,100912.50
2023-04-05T12:50:18.345Z,100833.09
2023-04-05T12:55:16.230Z,100891.38
2023-04-05T13:00:14.448Z,100864.94
2023-04-05T13:05:11.502Z,100913.19
2023-04-05T13:10:10.567Z,100917.16
2023-04-05T13:15:19.025Z,100834.94
2023-04-05T13:20:21.460Z,100904.22
2023-04-05T13:25:18.386Z,100874.91
2023-04-05T13:30:16.416Z,100873.28
2023-04-05T13:35:13.554Z,100875.09
2023-04-05T13:40:11.081Z,100872.16
2023-04-05T13:45:09.112Z,100898.91
2023-04-05T13:50:10.883Z,100911.38
2023-04-05T13:55:08.330Z,100904.84
2023-04-05T14:00:06.787Z,100910.72
2023-04-05T14:05:10.105Z,100907.50
2023-04-05T14:10:08.246Z,100909.19
2023-04-05T14:15:07.787Z,100882.13
2023-04-05T14:20:07.680Z,100879.00
2023-04-05T14:25:07.705Z,100911.66
2023-04-05T14:30:06.111Z,100920.03
2023-04-05T14:35:06.764Z,100840.34
2023-04-05T14:40:04.192Z,100915.22
2023-04-05T14:45:02.259Z,100873.53
2023-04-05T14:50:01.297Z,100891.16
2023-04-05T14:55:02.713Z,100874.94
2023-04-05T15:00:05.726Z,100902.84
2023-04-05T15:05:03.709Z,100916.22
2023-04-05T15:15:56.170Z,100846.03
2023-04-05T15:20:53.897Z,100918.09
2023-04-05T15:25:56.258Z,100917.00
2023-04-05T15:31:01.699Z,100895.22
2023-04-05T15:35:58.769Z,100935.88
2023-04-05T15:40:57.311Z,100934.78
2023-04-05T15:45:56.006Z,100874.75
2023-04-05T15:50:53.099Z,100881.09
2023-04-05T15:55:52.662Z,100923.91
2023-04-05T16:00:53.204Z,100886.31
2023-04-05T16:05:59.830Z,100866.00
2023-04-05T16:10:58.622Z,100887.91
2023-04-05T16:15:55.752Z,100892.16
2023-04-05T16:20:57.024Z,100842.19
2023-04-05T16:25:59.310Z,100881.13
2023-04-05T16:31:11.031Z,100928.38
2023-04-05T16:36:09.043Z,100899.13
2023-04-05T16:41:06.104Z,100933.81
2023-04-05T16:46:03.248Z,100924.91
2023-04-05T16:51:00.826Z,100817.75
2023-04-05T16:55:59.389Z,100847.38
2023-04-05T17:01:02.118Z,100931.63
2023-04-05T17:06:02.321Z,100901.16
2023-04-05T17:11:03.420Z,100920.97
2023-04-05T17:16:01.480Z,100924.88
2023-04-05T17:21:01.534Z,100946.75
2023-04-05T17:26:03.256Z,100937.72
2023-04-05T17:31:14.802Z,100966.00
2023-04-05T17:36:14.646Z,100973.66
2023-04-05T17:41:12.811Z,100943.47
2023-04-05T17:46:13.453Z,100891.09
2023-04-05T17:51:10.864Z,100935.88
2023-04-05T17:56:09.059Z,100906.25
2023-04-05T18:01:06.932Z,101007.72
2023-04-05T18:06:05.197Z,100987.34
2023-04-05T18:11:02.277Z,101010.34
2023-04-05T18:15:59.614Z,101031.56
2023-04-05T18:21:01.355Z,101043.19
2023-04-05T18:25:58.458Z,101043.31
2023-04-05T18:30:56.594Z,101009.13
2023-04-05T18:35:56.807Z,101012.75
2023-04-05T18:41:02.840Z,101014.66
2023-04-05T18:46:01.850Z,100904.78
2023-04-05T18:51:00.247Z,100972.38
2023-04-05T18:56:01.503Z,101041.00
2023-04-05T19:01:04.399Z,101004.69
2023-04-05T19:06:01.822Z,101040.91
2023-04-05T19:11:00.534Z,101008.75
2023-04-05T19:15:57.782Z,100989.34
2023-04-05T19:20:58.845Z,101009.09
2023-04-05T19:25:57.201Z,101032.47
2023-04-05T19:30:55.263Z,101013.16
2023-04-05T19:35:54.875Z,101031.00
2023-04-05T19:40:52.342Z,100931.88
2023-04-05T19:45:52.417Z,100981.53
2023-04-05T19:50:55.683Z,100983.84
2023-04-05T19:55:56.741Z,101005.25
2023-04-05T20:00:54.806Z,101014.94
2023-04-05T20:06:02.335Z,101019.03
2023-04-05T20:10:59.713Z,100982.38
2023-04-05T20:15:56.715Z,100932.06
2023-04-05T20:20:54.680Z,101009.94
2023-04-05T20:25:52.827Z,101021.09
2023-04-05T20:30:50.743Z,101003.34
2023-04-05T20:35:47.765Z,101016.03
2023-04-05T20:40:44.967Z,101017.25
2023-04-05T20:45:43.099Z,101021.47
2023-04-05T20:50:40.657Z,101023.28
2023-04-05T20:55:37.852Z,100978.03
2023-04-05T21:00:35.001Z,101010.34
2023-04-05T21:05:32.574Z,100991.47
2023-04-05T21:10:29.799Z,100988.91
2023-04-05T21:15:30.555Z,100898.28
2023-04-05T21:20:30.392Z,100998.28
2023-04-05T21:25:28.013Z,100976.03
2023-04-05T21:30:25.020Z,101001.19
2023-04-05T21:35:22.044Z,100950.19
2023-04-05T21:40:19.160Z,100986.09
2023-04-05T21:45:16.902Z,100976.81
2023-04-05T21:50:14.555Z,100983.06
2023-04-05T21:55:11.982Z,100953.47
2023-04-05T22:00:11.203Z,100913.72
2023-04-05T22:05:14.189Z,100945.72
2023-04-05T22:10:12.692Z,100980.38
2023-04-05T22:15:10.456Z,100978.88
2023-04-05T22:20:08.486Z,100928.59
2023-04-05T22:25:08.422Z,100926.03
2023-04-05T22:30:06.463Z,100957.44
2023-04-05T22:35:03.794Z,100964.88
2023-04-05T22:40:01.150Z,100932.13
2023-04-05T22:44:59.185Z,100934.31
2023-04-05T22:49:56.507Z,100953.94
2023-04-05T22:54:53.674Z,100962.28
2023-04-05T22:59:50.699Z,100963.03
2023-04-05T23:04:48.501Z,100930.53
2023-04-05T23:09:45.482Z,100958.53
2023-04-05T23:14:42.562Z,100954.13
2023-04-05T23:19:39.558Z,100951.50
2023-04-05T23:24:37.736Z,100945.44
2023-04-05T23:29:34.655Z,100924.22
2023-04-05T23:34:31.670Z,100894.75
2023-04-05T23:39:28.808Z,100928.41
2023-04-05T23:44:26.665Z,100924.81
2023-04-05T23:49:25.977Z,100911.75
2023-04-05T23:54:23.110Z,100923.19
2023-04-05T23:59:20.045Z,100906.56
